Time,TemperatureF,DewpointF,PressureIn,WindDirection,WindDirectionDegrees,WindSpeedMPH,WindSpeedGustMPH,Humidity,HourlyPrecipIn,Conditions,Clouds,dailyrainin,SoftwareType,DateUTC
2013-05-30 00:03:00,69.0,56.0,30.11,SW,225,0.0,0.0,63,0.00,,,0.00,,2013-05-30 04:03:00,
2013-05-30 00:13:00,69.0,56.0,30.11,SW,225,0.0,0.0,63,0.00,,,0.00,,2013-05-30 04:13:00,
2013-05-30 00:23:00,69.0,56.0,30.12,SW,225,0.0,0.0,64,0.00,,,0.00,,2013-05-30 04:23:00,
2013-05-30 00:33:00,68.0,56.0,30.12,SW,225,0.0,0.0,65,0.00,,,0.00,,2013-05-30 04:33:00,
2013-05-30 00:42:00,68.0,56.0,30.12,SW,225,0.0,0.0,65,0.00,,,0.00,,2013-05-30 04:42:00,
2013-05-30 00:53:00,67.0,55.0,30.12,SW,225,0.0,0.0,66,0.00,,,0.00,,2013-05-30 04:53:00,
2013-05-30 01:02:00,66.0,55.0,30.13,SW,225,0.0,0.0,68,0.00,,,0.00,,2013-05-30 05:02:00,
2013-05-30 01:12:00,66.0,55.0,30.13,SW,225,0.0,0.0,68,0.00,,,0.00,,2013-05-30 05:12:00,
2013-05-30 01:22:00,66.0,55.0,30.13,SW,225,0.0,0.0,68,0.00,,,0.00,,2013-05-30 05:22:00,
2013-05-30 01:32:00,65.0,55.0,30.13,SW,225,0.0,0.0,69,0.00,,,0.00,,2013-05-30 05:32:00,
2013-05-30 01:42:00,65.0,55.0,30.13,SW,225,0.0,0.0,69,0.00,,,0.00,,2013-05-30 05:42:00,
2013-05-30 01:52:00,65.0,55.0,30.14,SW,225,0.0,0.0,69,0.00,,,0.00,,2013-05-30 05:52:00,
2013-05-30 02:01:00,65.0,55.0,30.14,SW,225,0.0,0.0,70,0.00,,,0.00,,2013-05-30 06:01:00,
2013-05-30 02:12:00,65.0,55.0,30.14,SW,225,0.0,0.0,70,0.00,,,0.00,,2013-05-30 06:12:00,
2013-05-30 02:22:00,65.0,55.0,30.14,SW,225,0.0,0.0,71,0.00,,,0.00,,2013-05-30 06:22:00,
2013-05-30 02:32:00,65.0,55.0,30.14,SW,225,0.0,0.0,71,0.00,,,0.00,,2013-05-30 06:32:00,
2013-05-30 02:42:00,65.0,55.0,30.14,SW,225,0.0,0.0,71,0.00,,,0.00,,2013-05-30 06:42:00,
2013-05-30 02:52:00,64.0,55.0,30.14,SW,225,0.0,0.0,72,0.00,,,0.00,,2013-05-30 06:52:00,
2013-05-30 03:01:00,64.0,55.0,30.14,SW,225,0.0,0.0,72,0.00,,,0.00,,2013-05-30 07:01:00,
2013-05-30 03:12:00,64.0,55.0,30.14,SW,225,0.0,0.0,72,0.00,,,0.00,,2013-05-30 07:12:00,
2013-05-30 03:22:00,63.0,54.0,30.14,SW,225,0.0,0.0,73,0.00,,,0.00,,2013-05-30 07:22:00,
2013-05-30 03:32:00,63.0,54.0,30.14,SW,225,0.0,0.0,73,0.00,,,0.00,,2013-05-30 07:32:00,
2013-05-30 03:42:00,63.0,54.0,30.14,SW,225,0.0,0.0,73,0.00,,,0.00,,2013-05-30 07:42:00,
2013-05-30 03:52:00,63.0,54.0,30.14,SW,225,0.0,0.0,73,0.00,,,0.00,,2013-05-30 07:52:00,
2013-05-30 04:02:00,62.0,54.0,30.15,SW,225,0.0,0.0,74,0.00,,,0.00,,2013-05-30 08:02:00,
2013-05-30 04:11:00,62.0,54.0,30.15,SW,225,0.0,0.0,74,0.00,,,0.00,,2013-05-30 08:11:00,
2013-05-30 04:22:00,62.0,54.0,30.15,SW,225,0.0,0.0,75,0.00,,,0.00,,2013-05-30 08:22:00,
2013-05-30 04:32:00,62.0,54.0,30.15,SW,225,0.0,0.0,76,0.00,,,0.00,,2013-05-30 08:32:00,
2013-05-30 04:42:00,62.0,54.0,30.15,SW,225,0.0,0.0,76,0.00,,,0.00,,2013-05-30 08:42:00,
2013-05-30 04:53:00,61.0,53.0,30.15,SW,225,0.0,0.0,76,0.00,,,0.00,,2013-05-30 08:53:00,
2013-05-30 05:01:00,60.0,53.0,30.16,SW,225,0.0,0.0,77,0.00,,,0.00,,2013-05-30 09:01:00,
2013-05-30 05:11:00,60.0,53.0,30.16,SW,225,0.0,0.0,77,0.00,,,0.00,,2013-05-30 09:11:00,
2013-05-30 05:21:00,60.0,53.0,30.17,SW,225,0.0,0.0,78,0.00,,,0.00,,2013-05-30 09:21:00,
2013-05-30 05:33:00,60.0,53.0,30.17,SW,225,0.0,0.0,78,0.00,,,0.00,,2013-05-30 09:33:00,
2013-05-30 05:42:00,60.0,53.0,30.17,SW,225,0.0,0.0,78,0.00,,,0.00,,2013-05-30 09:42:00,
2013-05-30 05:53:00,60.0,53.0,30.17,SW,225,0.0,0.0,78,0.00,,,0.00,,2013-05-30 09:53:00,
2013-05-30 06:03:00,60.0,53.0,30.17,SW,225,0.0,0.0,78,0.00,,,0.00,,2013-05-30 10:03:00,
2013-05-30 06:13:00,60.0,53.0,30.17,SW,225,0.0,0.0,78,0.00,,,0.00,,2013-05-30 10:13:00,
2013-05-30 06:23:00,60.0,53.0,30.18,SW,225,0.0,0.0,79,0.00,,,0.00,,2013-05-30 10:23:00,
2013-05-30 06:32:00,60.0,53.0,30.18,SW,225,0.0,0.0,79,0.00,,,0.00,,2013-05-30 10:32:00,
2013-05-30 06:42:00,60.0,53.0,30.18,SW,225,0.0,0.0,79,0.00,,,0.00,,2013-05-30 10:42:00,
2013-05-30 06:52:00,60.0,53.0,30.18,SW,225,0.0,0.0,79,0.00,,,0.00,,2013-05-30 10:52:00,
2013-05-30 07:03:00,60.0,54.0,30.18,SW,225,0.0,0.0,80,0.00,,,0.00,,2013-05-30 11:03:00,
2013-05-30 07:12:00,60.0,54.0,30.18,SW,225,0.0,0.0,80,0.00,,,0.00,,2013-05-30 11:12:00,
2013-05-30 07:22:00,60.0,54.0,30.19,SW,225,0.0,0.0,80,0.00,,,0.00,,2013-05-30 11:22:00,
2013-05-30 07:32:00,61.0,55.0,30.18,SW,225,0.0,0.0,80,0.00,,,0.00,,2013-05-30 11:32:00,
2013-05-30 07:42:00,61.0,55.0,30.18,SW,225,0.0,0.0,80,0.00,,,0.00,,2013-05-30 11:42:00,
2013-05-30 07:52:00,61.0,55.0,30.18,SW,225,0.0,0.0,80,0.00,,,0.00,,2013-05-30 11:52:00,
2013-05-30 08:01:00,61.0,55.0,30.18,SW,225,0.0,0.0,80,0.00,,,0.00,,2013-05-30 12:01:00,
2013-05-30 08:11:00,61.0,55.0,30.18,SW,225,0.0,0.0,80,0.00,,,0.00,,2013-05-30 12:11:00,
2013-05-30 08:22:00,62.0,56.0,30.19,SW,225,0.0,0.0,81,0.00,,,0.00,,2013-05-30 12:22:00,
2013-05-30 08:32:00,62.0,56.0,30.19,SW,225,0.0,0.0,81,0.00,,,0.00,,2013-05-30 12:32:00,
2013-05-30 08:42:00,62.0,56.0,30.19,SW,225,0.0,0.0,81,0.00,,,0.00,,2013-05-30 12:42:00,
2013-05-30 08:52:00,64.0,58.0,30.20,SW,225,0.0,0.0,82,0.00,,,0.00,,2013-05-30 12:52:00,
2013-05-30 09:01:00,65.0,59.0,30.20,SW,225,0.0,0.0,82,0.00,,,0.00,,2013-05-30 13:01:00,
2013-05-30 09:11:00,65.0,59.0,30.20,SW,225,0.0,0.0,82,0.00,,,0.00,,2013-05-30 13:11:00,
2013-05-30 09:22:00,65.0,59.0,30.20,SW,225,0.0,0.0,82,0.00,,,0.00,,2013-05-30 13:22:00,
2013-05-30 09:32:00,67.0,61.0,30.21,SSW,211,0.0,0.0,81,0.00,,,0.00,,2013-05-30 13:32:00,
2013-05-30 09:42:00,67.0,61.0,30.21,SSW,211,0.0,0.0,81,0.00,,,0.00,,2013-05-30 13:42:00,
2013-05-30 09:52:00,68.0,61.0,30.21,SW,225,1.0,5.0,78,0.00,,,0.00,,2013-05-30 13:52:00,
2013-05-30 10:02:00,69.0,61.0,30.22,SW,225,0.0,0.0,76,0.00,,,0.00,,2013-05-30 14:02:00,
2013-05-30 10:11:00,69.0,61.0,30.22,SW,225,0.0,0.0,76,0.00,,,0.00,,2013-05-30 14:11:00,
2013-05-30 10:22:00,70.0,62.0,30.22,SW,225,0.0,0.0,76,0.00,,,0.00,,2013-05-30 14:22:00,
2013-05-30 10:32:00,72.0,63.0,30.21,SW,225,0.0,0.0,74,0.00,,,0.00,,2013-05-30 14:32:00,
2013-05-30 10:42:00,72.0,63.0,30.21,SW,225,0.0,0.0,74,0.00,,,0.00,,2013-05-30 14:42:00,
2013-05-30 10:52:00,73.0,63.0,30.21,SSW,208,0.0,3.0,72,0.00,,,0.00,,2013-05-30 14:52:00,
2013-05-30 11:01:00,74.0,64.0,30.21,SSW,202,0.0,2.0,71,0.00,,,0.00,,2013-05-30 15:01:00,
2013-05-30 11:11:00,74.0,64.0,30.21,SSW,202,0.0,2.0,71,0.00,,,0.00,,2013-05-30 15:11:00,
2013-05-30 11:22:00,78.0,66.0,30.20,SW,225,0.0,3.0,66,0.00,,,0.00,,2013-05-30 15:22:00,
2013-05-30 11:33:00,80.0,67.0,30.20,SW,234,1.0,5.0,64,0.00,,,0.00,,2013-05-30 15:33:00,
2013-05-30 11:42:00,80.0,67.0,30.20,SW,234,1.0,5.0,64,0.00,,,0.00,,2013-05-30 15:42:00,
2013-05-30 11:53:00,82.0,67.0,30.20,SSW,202,0.0,2.0,60,0.00,,,0.00,,2013-05-30 15:53:00,
2013-05-30 12:03:00,83.0,65.0,30.20,SW,233,0.0,0.0,55,0.00,,,0.00,,2013-05-30 16:03:00,
2013-05-30 12:12:00,83.0,65.0,30.20,SW,233,0.0,0.0,55,0.00,,,0.00,,2013-05-30 16:12:00,
2013-05-30 12:23:00,84.0,66.0,30.20,WSW,247,0.0,0.0,55,0.00,,,0.00,,2013-05-30 16:23:00,
2013-05-30 12:33:00,84.0,66.0,30.20,WSW,247,0.0,0.0,55,0.00,,,0.00,,2013-05-30 16:33:00,
2013-05-30 12:42:00,84.0,66.0,30.20,WSW,247,0.0,0.0,55,0.00,,,0.00,,2013-05-30 16:42:00,
2013-05-30 12:52:00,87.0,67.0,30.19,West,281,0.0,0.0,52,0.00,,,0.00,,2013-05-30 16:52:00,
2013-05-30 13:02:00,85.0,65.0,30.19,SSW,202,0.0,9.0,51,0.00,,,0.00,,2013-05-30 17:02:00,
2013-05-30 13:12:00,85.0,65.0,30.19,SSW,202,0.0,9.0,51,0.00,,,0.00,,2013-05-30 17:12:00,
2013-05-30 13:22:00,86.0,66.0,30.19,SSW,202,0.0,1.0,52,0.00,,,0.00,,2013-05-30 17:22:00,
2013-05-30 13:32:00,86.0,66.0,30.19,SSW,202,0.0,1.0,51,0.00,,,0.00,,2013-05-30 17:32:00,
2013-05-30 13:42:00,86.0,66.0,30.19,SSW,202,0.0,1.0,51,0.00,,,0.00,,2013-05-30 17:42:00,
2013-05-30 13:52:00,85.0,65.0,30.18,SSW,202,0.0,0.0,52,0.00,,,0.00,,2013-05-30 17:52:00,
2013-05-30 14:02:00,85.0,64.0,30.17,SSW,202,0.0,0.0,50,0.00,,,0.00,,2013-05-30 18:02:00,
2013-05-30 14:11:00,85.0,64.0,30.17,SSW,202,0.0,0.0,50,0.00,,,0.00,,2013-05-30 18:11:00,
2013-05-30 14:22:00,86.0,66.0,30.17,South,180,0.0,0.0,51,0.00,,,0.00,,2013-05-30 18:22:00,
2013-05-30 14:32:00,87.0,67.0,30.17,SSW,202,0.0,0.0,51,0.00,,,0.00,,2013-05-30 18:32:00,
2013-05-30 14:43:00,87.0,67.0,30.17,SSW,202,0.0,0.0,51,0.00,,,0.00,,2013-05-30 18:43:00,
2013-05-30 14:51:00,87.0,65.0,30.16,North,354,0.0,0.0,48,0.00,,,0.00,,2013-05-30 18:51:00,
2013-05-30 15:02:00,87.0,65.0,30.16,SSW,210,0.0,0.0,49,0.00,,,0.00,,2013-05-30 19:02:00,
2013-05-30 15:12:00,87.0,65.0,30.16,SSW,210,0.0,0.0,49,0.00,,,0.00,,2013-05-30 19:12:00,
2013-05-30 15:23:00,87.0,65.0,30.16,South,180,0.0,1.0,49,0.00,,,0.00,,2013-05-30 19:23:00,
2013-05-30 15:32:00,87.0,65.0,30.15,West,269,0.0,3.0,48,0.00,,,0.00,,2013-05-30 19:32:00,
2013-05-30 15:42:00,87.0,65.0,30.15,West,269,0.0,3.0,48,0.00,,,0.00,,2013-05-30 19:42:00,
2013-05-30 15:52:00,87.0,65.0,30.15,West,269,0.0,3.0,48,0.00,,,0.00,,2013-05-30 19:52:00,
2013-05-30 16:02:00,87.0,64.0,30.15,SSW,202,0.0,1.0,47,0.00,,,0.00,,2013-05-30 20:02:00,
2013-05-30 16:11:00,87.0,64.0,30.15,SSW,202,0.0,1.0,47,0.00,,,0.00,,2013-05-30 20:11:00,
2013-05-30 16:22:00,87.0,64.0,30.14,SSW,202,1.0,2.0,46,0.00,,,0.00,,2013-05-30 20:22:00,
2013-05-30 16:33:00,87.0,64.0,30.14,SSW,202,0.0,2.0,47,0.00,,,0.00,,2013-05-30 20:33:00,
2013-05-30 16:42:00,87.0,64.0,30.14,SSW,202,0.0,2.0,47,0.00,,,0.00,,2013-05-30 20:42:00,
2013-05-30 16:52:00,87.0,62.0,30.14,WNW,290,0.0,0.0,44,0.00,,,0.00,,2013-05-30 20:52:00,
2013-05-30 17:01:00,86.0,62.0,30.14,SSW,202,0.0,2.0,45,0.00,,,0.00,,2013-05-30 21:01:00,
2013-05-30 17:11:00,86.0,62.0,30.14,SSW,202,0.0,2.0,45,0.00,,,0.00,,2013-05-30 21:11:00,
2013-05-30 17:22:00,86.0,62.0,30.14,SSW,202,0.0,2.0,45,0.00,,,0.00,,2013-05-30 21:22:00,
2013-05-30 17:33:00,86.0,63.0,30.13,SW,225,0.0,0.0,46,0.00,,,0.00,,2013-05-30 21:33:00,
2013-05-30 17:43:00,86.0,63.0,30.13,SW,225,0.0,0.0,46,0.00,,,0.00,,2013-05-30 21:43:00,
2013-05-30 17:53:00,86.0,62.0,30.13,SSW,202,0.0,0.0,45,0.00,,,0.00,,2013-05-30 21:53:00,
2013-05-30 18:02:00,87.0,64.0,30.12,SSW,202,0.0,0.0,46,0.00,,,0.00,,2013-05-30 22:02:00,
2013-05-30 18:12:00,87.0,64.0,30.12,SSW,202,0.0,0.0,46,0.00,,,0.00,,2013-05-30 22:12:00,
2013-05-30 18:23:00,87.0,64.0,30.12,SSW,202,0.0,0.0,46,0.00,,,0.00,,2013-05-30 22:23:00,
2013-05-30 18:33:00,86.0,63.0,30.12,SSW,202,0.0,0.0,46,0.00,,,0.00,,2013-05-30 22:33:00,
2013-05-30 18:42:00,86.0,63.0,30.11,SSW,202,0.0,0.0,46,0.00,,,0.00,,2013-05-30 22:42:00,
2013-05-30 18:52:00,86.0,63.0,30.11,SSW,202,0.0,0.0,46,0.00,,,0.00,,2013-05-30 22:52:00,
2013-05-30 19:02:00,86.0,64.0,30.11,SSW,202,0.0,0.0,48,0.00,,,0.00,,2013-05-30 23:02:00,
2013-05-30 19:11:00,86.0,64.0,30.11,SSW,202,0.0,0.0,48,0.00,,,0.00,,2013-05-30 23:11:00,
2013-05-30 19:22:00,86.0,64.0,30.11,SSW,202,0.0,0.0,48,0.00,,,0.00,,2013-05-30 23:22:00,
2013-05-30 19:32:00,85.0,63.0,30.11,WNW,292,0.0,0.0,48,0.00,,,0.00,,2013-05-30 23:32:00,
2013-05-30 19:41:00,85.0,63.0,30.11,WNW,292,0.0,0.0,48,0.00,,,0.00,,2013-05-30 23:41:00,
2013-05-30 19:52:00,84.0,63.0,30.11,NNE,22,0.0,0.0,49,0.00,,,0.00,,2013-05-30 23:52:00,
2013-05-30 20:01:00,83.0,62.0,30.11,NNE,22,0.0,0.0,50,0.00,,,0.00,,2013-05-31 00:01:00,
2013-05-30 20:11:00,83.0,62.0,30.11,NNE,22,0.0,0.0,50,0.00,,,0.00,,2013-05-31 00:11:00,
2013-05-30 20:22:00,82.0,61.0,30.10,NNE,22,0.0,0.0,50,0.00,,,0.00,,2013-05-31 00:22:00,
2013-05-30 20:32:00,82.0,61.0,30.10,NNE,22,0.0,0.0,50,0.00,,,0.00,,2013-05-31 00:32:00,
2013-05-30 20:42:00,81.0,61.0,30.10,NNE,22,0.0,0.0,51,0.00,,,0.00,,2013-05-31 00:42:00,
2013-05-30 20:52:00,81.0,61.0,30.10,NNE,22,0.0,0.0,51,0.00,,,0.00,,2013-05-31 00:52:00,
2013-05-30 21:01:00,80.0,61.0,30.10,NNE,22,0.0,0.0,52,0.00,,,0.00,,2013-05-31 01:01:00,
2013-05-30 21:12:00,80.0,61.0,30.10,NNE,22,0.0,0.0,52,0.00,,,0.00,,2013-05-31 01:12:00,
2013-05-30 21:21:00,79.0,60.0,30.10,NNE,22,0.0,0.0,52,0.00,,,0.00,,2013-05-31 01:21:00,
2013-05-30 21:32:00,78.0,61.0,30.11,NNE,22,0.0,0.0,55,0.00,,,0.00,,2013-05-31 01:32:00,
2013-05-30 21:42:00,78.0,61.0,30.11,NNE,22,0.0,0.0,55,0.00,,,0.00,,2013-05-31 01:42:00,
2013-05-30 21:52:00,78.0,61.0,30.11,NNE,22,0.0,0.0,55,0.00,,,0.00,,2013-05-31 01:52:00,
2013-05-30 22:02:00,75.0,59.0,30.11,NNE,22,0.0,0.0,58,0.00,,,0.00,,2013-05-31 02:02:00,
2013-05-30 22:11:00,75.0,59.0,30.11,NNE,22,0.0,0.0,58,0.00,,,0.00,,2013-05-31 02:11:00,
2013-05-30 22:22:00,74.0,59.0,30.12,NNE,22,0.0,0.0,59,0.00,,,0.00,,2013-05-31 02:22:00,
2013-05-30 22:32:00,73.0,59.0,30.12,NNE,22,0.0,0.0,61,0.00,,,0.00,,2013-05-31 02:32:00,
2013-05-30 22:42:00,73.0,59.0,30.12,NNE,22,0.0,0.0,61,0.00,,,0.00,,2013-05-31 02:42:00,
2013-05-30 22:51:00,73.0,59.0,30.12,NNE,22,0.0,0.0,61,0.00,,,0.00,,2013-05-31 02:51:00,
2013-05-30 23:01:00,71.0,58.0,30.11,NNE,22,0.0,0.0,63,0.00,,,0.00,,2013-05-31 03:01:00,
2013-05-30 23:11:00,71.0,58.0,30.11,NNE,22,0.0,0.0,63,0.00,,,0.00,,2013-05-31 03:11:00,
2013-05-30 23:21:00,71.0,58.0,30.11,NNE,22,0.0,0.0,63,0.00,,,0.00,,2013-05-31 03:21:00,
2013-05-30 23:33:00,70.0,58.0,30.12,NNE,22,0.0,0.0,65,0.00,,,0.00,,2013-05-31 03:33:00,
2013-05-30 23:43:00,70.0,58.0,30.12,NNE,22,0.0,0.0,65,0.00,,,0.00,,2013-05-31 03:43:00,
2013-05-30 23:53:00,70.0,58.0,30.12,NNE,22,0.0,0.0,66,0.00,,,0.00,,2013-05-31 03:53:00,